Time;durP1;ratioP1;P1;durP2;ratioP2;P2;SDS_P1;SDS_P2;PMS_P1;PMS_P2;Temp;Humidity;BMP_temperature;BMP_pressure;BME280_temperature;BME280_humidity;BME280_pressure;Samples;Min_cycle;Max_cycle;Signal;HPM_P1;HPM_P2
2022/01/18 00:00:22;;;;;;;9.70;8.86;;;;;;;2.88;72.96;99043.98;451847;114;922435;-74
2022/01/18 00:01:21;;;;;;;9.81;8.86;;;;;;;2.87;73.12;99050.40;450819;116;922497;-75
2022/01/18 00:02:26;;;;;;;9.49;8.58;;;;;;;2.88;73.24;99046.68;452290;115;922564;-76
2022/01/18 00:03:30;;;;;;;9.54;8.21;;;;;;;2.89;73.38;99045.66;452144;115;922442;-74
2022/01/18 00:04:35;;;;;;;8.33;7.61;;;;;;;2.90;73.33;99041.94;452064;116;922837;-73
2022/01/18 00:05:38;;;;;;;13.07;7.95;;;;;;;2.90;73.33;99035.72;453188;116;930705;-75
2022/01/18 00:06:45;;;;;;;9.20;8.40;;;;;;;2.90;73.29;99038.41;453344;115;922656;-75
2022/01/18 00:07:47;;;;;;;9.39;8.56;;;;;;;2.89;73.29;99034.89;453281;115;930651;-75
2022/01/18 00:08:50;;;;;;;9.21;8.41;;;;;;;2.88;73.26;99040.47;453126;116;922476;-75
2022/01/18 00:09:54;;;;;;;9.18;8.30;;;;;;;2.86;73.26;99039.86;453684;116;922714;-75
2022/01/18 00:10:57;;;;;;;9.89;8.93;;;;;;;2.86;73.28;99040.69;453914;116;922688;-74
2022/01/18 00:12:27;;;;;;;9.14;8.21;;;;;;;2.86;73.38;99035.30;453681;116;922912;-74
2022/01/18 00:13:12;;;;;;;8.99;8.22;;;;;;;2.88;73.41;99029.70;451711;116;922579;-74
2022/01/18 00:14:27;;;;;;;8.52;7.80;;;;;;;2.88;73.39;99032.39;454782;116;922694;-75
2022/01/18 00:16:49;;;;;;;9.10;8.17;;;;;;;2.87;73.42;99031.55;450674;116;922832;-74
2022/01/18 00:17:53;;;;;;;9.21;7.89;;;;;;;2.89;73.48;99020.59;449526;116;922547;-74
2022/01/18 00:18:49;;;;;;;8.81;8.01;;;;;;;2.89;73.53;99018.73;450599;115;923220;-75
2022/01/18 00:19:55;;;;;;;8.61;7.82;;;;;;;2.90;73.50;99023.09;452072;116;923081;-76
2022/01/18 00:22:14;;;;;;;8.88;8.04;;;;;;;2.89;73.45;99016.05;449535;116;922790;-75
2022/01/18 00:23:14;;;;;;;8.48;7.63;;;;;;;2.90;73.49;99015.02;450606;115;922943;-73
2022/01/18 00:24:17;;;;;;;8.65;7.80;;;;;;;2.91;73.52;99015.84;451592;116;922527;-74
2022/01/18 00:25:20;;;;;;;8.54;7.76;;;;;;;2.91;73.43;99011.30;450866;116;922656;-73
2022/01/18 00:26:29;;;;;;;8.32;7.57;;;;;;;2.91;73.49;99008.61;451834;116;922535;-74
2022/01/18 00:27:32;;;;;;;10.93;8.41;;;;;;;2.92;73.41;99014.82;452447;115;923564;-73
2022/01/18 00:28:37;;;;;;;8.43;7.63;;;;;;;2.91;73.38;99011.30;452324;116;922791;-75
2022/01/18 00:30:00;;;;;;;8.12;7.37;;;;;;;2.91;73.41;99023.92;452347;116;922894;-75
2022/01/18 00:32:22;;;;;;;8.60;7.79;;;;;;;2.89;73.32;99007.97;452955;115;922658;-75
2022/01/18 00:33:36;;;;;;;8.17;7.41;;;;;;;2.86;73.27;99005.70;452263;116;922703;-74
2022/01/18 00:34:31;;;;;;;;;;;;;;;2.85;73.34;99006.73;454615;116;922340;-75
2022/01/18 00:35:34;;;;;;;7.32;6.67;;;;;;;2.86;73.36;99007.55;453392;116;922496;-75
2022/01/18 00:36:54;;;;;;;8.82;7.98;;;;;;;2.83;73.38;99002.56;453258;115;922879;-74
2022/01/18 00:37:58;;;;;;;7.70;7.07;;;;;;;2.80;73.47;99000.30;454659;116;923243;-75
2022/01/18 00:39:03;;;;;;;9.71;7.73;;;;;;;2.79;73.61;99007.53;454243;116;922543;-75
2022/01/18 00:40:07;;;;;;;8.71;7.83;;;;;;;2.79;73.65;98999.46;452540;115;923091;-75
2022/01/18 00:41:12;;;;;;;8.11;7.41;;;;;;;2.80;73.58;99011.06;450744;115;922527;-75
2022/01/18 00:42:15;;;;;;;7.41;6.73;;;;;;;2.80;73.60;99014.58;451090;114;922941;-76
2022/01/18 00:43:18;;;;;;;7.87;7.23;;;;;;;2.80;73.57;99011.89;451213;115;923214;-74
2022/01/18 00:44:24;;;;;;;8.69;7.85;;;;;;;2.79;73.57;99018.30;450807;115;922687;-75
2022/01/18 00:45:27;;;;;;;8.60;7.80;;;;;;;2.79;73.60;99017.47;451242;114;922604;-74
2022/01/18 00:46:31;;;;;;;7.68;7.04;;;;;;;2.77;73.69;98998.83;451642;116;930755;-74
2022/01/18 00:47:35;;;;;;;8.04;7.25;;;;;;;2.77;73.72;99004.20;447960;116;931227;-75
2022/01/18 00:48:39;;;;;;;8.89;8.16;;;;;;;2.79;73.71;99004.02;448657;116;922847;-74
2022/01/18 00:49:46;;;;;;;8.43;7.68;;;;;;;2.78;73.69;99003.18;451465;116;922610;-74
2022/01/18 00:50:49;;;;;;;9.22;8.42;;;;;;;2.78;73.71;99003.18;451310;116;922588;-77
2022/01/18 00:51:56;;;;;;;8.93;8.14;;;;;;;2.79;73.78;99004.84;451954;115;922593;-75
2022/01/18 00:52:58;;;;;;;8.68;7.79;;;;;;;2.79;73.84;99004.84;452467;114;930584;-74
2022/01/18 00:54:03;;;;;;;8.36;7.59;;;;;;;2.79;74.01;99007.53;452829;116;922698;-75
2022/01/18 00:55:07;;;;;;;8.92;8.13;;;;;;;2.79;74.04;98995.94;453191;116;922953;-74
2022/01/18 00:56:20;;;;;;;9.06;8.25;;;;;;;2.79;74.11;98994.08;449325;116;923088;-75
2022/01/18 00:57:17;;;;;;;8.04;7.26;;;;;;;2.79;74.12;98994.08;461310;113;922576;-75
2022/01/18 00:58:20;;;;;;;9.83;7.63;;;;;;;2.79;74.24;99002.16;461215;113;923312;-74
2022/01/18 00:59:23;;;;;;;8.14;7.37;;;;;;;2.80;74.22;99008.37;462096;113;922853;-74
2022/01/18 01:00:27;;;;;;;9.14;8.23;;;;;;;2.77;74.23;98990.75;462972;112;923053;-74
2022/01/18 01:01:31;;;;;;;9.21;8.39;;;;;;;2.76;74.10;98999.02;462238;113;922619;-74
2022/01/18 01:02:35;;;;;;;8.84;8.03;;;;;;;2.72;74.08;99003.98;462546;113;930462;-74
2022/01/18 01:03:38;;;;;;;7.51;6.96;;;;;;;2.71;74.26;98996.94;462294;113;923170;-76
2022/01/18 01:04:47;;;;;;;8.77;7.96;;;;;;;2.70;74.30;98994.48;462189;113;923868;-75
2022/01/18 01:05:46;;;;;;;9.23;8.43;;;;;;;2.69;74.32;98984.74;454029;114;922666;-74
2022/01/18 01:06:50;;;;;;;9.20;8.39;;;;;;;2.67;74.40;98990.31;464449;112;922797;-74
2022/01/18 01:07:53;;;;;;;8.30;7.60;;;;;;;2.65;74.53;98983.47;460499;112;930635;-74
2022/01/18 01:08:58;;;;;;;9.22;8.47;;;;;;;2.64;74.63;98979.97;459639;112;923702;-74
2022/01/18 01:10:01;;;;;;;9.18;8.44;;;;;;;2.63;74.73;98978.31;461024;112;923108;-75
2022/01/18 01:11:07;;;;;;;8.14;7.45;;;;;;;2.63;74.74;98991.77;459644;112;922580;-75
2022/01/18 01:12:11;;;;;;;9.02;8.29;;;;;;;2.61;74.84;98983.05;460445;113;922693;-75
2022/01/18 01:13:16;;;;;;;8.40;7.71;;;;;;;2.61;75.00;98985.74;459466;113;922671;-75
2022/01/18 01:14:23;;;;;;;8.95;8.12;;;;;;;2.61;75.12;98983.05;460799;112;922686;-74
2022/01/18 01:15:27;;;;;;;8.52;7.79;;;;;;;2.62;75.17;98989.27;462155;112;923008;-74
2022/01/18 01:34:10;;;;;;;8.92;8.16;;;;;;;2.51;75.96;98982.61;460380;112;922861;-74
2022/01/18 01:34:56;;;;;;;9.14;8.34;;;;;;;2.50;75.97;98978.26;457514;113;922822;-74
2022/01/18 01:41:39;;;;;;;9.66;8.70;;;;;;;2.49;76.09;98977.42;460401;113;923229;-76
2022/01/18 01:42:05;;;;;;;8.36;7.51;;;;;;;2.52;76.25;98978.89;461088;113;922796;-75
2022/01/18 01:44:23;;;;;;;8.69;7.98;;;;;;;2.50;76.04;98962.95;453663;114;922700;-74
2022/01/18 01:45:26;;;;;;;8.62;7.85;;;;;;;2.50;75.90;98962.12;451554;116;922578;-76
2022/01/18 01:46:34;;;;;;;9.01;8.21;;;;;;;2.47;75.84;98970.61;461140;113;922741;-75
2022/01/18 01:47:38;;;;;;;9.08;8.29;;;;;;;2.45;75.93;98961.90;462870;112;922587;-75
2022/01/18 01:48:44;;;;;;;8.47;7.77;;;;;;;2.44;75.86;98960.23;462617;112;922615;-74
2022/01/18 01:49:52;;;;;;;8.87;8.16;;;;;;;2.43;75.85;98956.72;462509;113;930698;-75
2022/01/18 01:51:02;;;;;;;8.07;7.43;;;;;;;2.44;75.82;98958.38;462037;113;923070;-75
2022/01/18 01:52:06;;;;;;;9.04;8.24;;;;;;;2.43;75.84;98950.50;461893;112;922643;-75
2022/01/18 01:53:10;;;;;;;8.70;7.97;;;;;;;2.43;75.85;98958.56;462691;112;922654;-75
2022/01/18 01:54:14;;;;;;;9.25;8.32;;;;;;;2.43;75.85;98958.56;463605;113;922620;-75
2022/01/18 01:55:19;;;;;;;9.04;8.31;;;;;;;2.43;75.73;98950.50;456613;115;922878;-74
2022/01/18 01:56:25;;;;;;;8.52;7.82;;;;;;;2.42;75.70;98946.18;463035;112;930659;-74
2022/01/18 01:57:28;;;;;;;9.40;8.51;;;;;;;2.41;75.77;98939.14;461233;113;923412;-75
2022/01/18 01:58:31;;;;;;;9.59;8.78;;;;;;;2.42;75.78;98941.63;460555;113;930624;-75
2022/01/18 01:59:35;;;;;;;8.97;8.03;;;;;;;2.43;75.74;98954.02;460432;113;922928;-75
2022/01/18 02:00:45;;;;;;;8.44;7.71;;;;;;;2.43;75.62;98948.64;461246;112;922931;-73
2022/01/18 02:01:49;;;;;;;7.74;7.12;;;;;;;2.44;75.61;98936.03;461848;112;923144;-73
2022/01/18 02:02:53;;;;;;;8.47;7.71;;;;;;;2.43;75.59;98942.43;451889;116;922819;-73
2022/01/18 02:03:57;;;;;;;8.50;7.90;;;;;;;2.44;75.53;98933.34;448794;115;923386;-75
2022/01/18 02:05:01;;;;;;;8.28;7.62;;;;;;;2.43;75.45;98935.19;456360;113;922860;-74
2022/01/18 02:06:04;;;;;;;8.14;7.51;;;;;;;2.43;75.42;98934.36;461582;112;922946;-73
2022/01/18 02:07:08;;;;;;;7.84;7.21;;;;;;;2.42;75.39;98936.25;460620;112;922624;-74
2022/01/18 02:08:12;;;;;;;8.80;8.01;;;;;;;2.42;75.40;98938.94;460665;112;922660;-75
2022/01/18 02:09:16;;;;;;;8.53;7.79;;;;;;;2.45;75.47;98940.38;461090;112;930481;-74
2022/01/18 02:10:20;;;;;;;8.12;7.42;;;;;;;2.47;75.48;98941.84;461357;112;930933;-74
2022/01/18 02:11:23;;;;;;;7.91;7.26;;;;;;;2.50;75.50;98945.98;462741;113;922590;-74
2022/01/18 02:12:26;;;;;;;8.22;7.49;;;;;;;2.54;75.43;98949.11;462083;112;922487;-74
2022/01/18 02:13:32;;;;;;;8.54;7.86;;;;;;;2.55;75.28;98943.50;462523;112;922664;-75
2022/01/18 02:14:35;;;;;;;8.43;7.72;;;;;;;2.57;75.14;98946.00;461388;113;930668;-74
2022/01/18 02:15:44;;;;;;;8.24;7.62;;;;;;;2.57;75.05;98954.07;462156;112;922674;-75
2022/01/18 02:22:12;;;;;;;8.14;7.43;;;;;;;2.60;74.81;98949.10;462036;113;922739;-74
2022/01/18 02:23:15;;;;;;;8.15;7.53;;;;;;;2.60;74.81;98946.41;459416;112;922659;-74
2022/01/18 02:24:20;;;;;;;8.30;7.60;;;;;;;2.61;74.79;98949.94;459169;113;922606;-75
2022/01/18 02:25:24;;;;;;;8.27;7.56;;;;;;;2.61;74.79;98937.31;460066;112;922955;-75
2022/01/18 02:26:30;;;;;;;8.26;7.56;;;;;;;2.64;74.78;98939.61;460099;113;922697;-75
2022/01/18 02:27:33;;;;;;;7.65;7.04;;;;;;;2.67;74.69;98946.43;461207;113;922701;-73
2022/01/18 02:28:36;;;;;;;9.04;8.33;;;;;;;2.69;74.57;98942.52;460475;113;923063;-75
2022/01/18 02:29:40;;;;;;;8.09;7.41;;;;;;;2.69;74.42;98945.20;460894;113;922490;-74
2022/01/18 02:30:45;;;;;;;7.74;7.14;;;;;;;2.70;74.29;98954.11;460985;113;928967;-74
2022/01/18 02:31:49;;;;;;;7.72;7.05;;;;;;;2.69;74.20;98947.91;459996;113;922697;-74
2022/01/18 02:32:53;;;;;;;7.55;7.01;;;;;;;2.68;74.17;98948.92;460996;113;922713;-75
2022/01/18 02:34:08;;;;;;;8.19;7.59;;;;;;;2.68;74.07;98954.31;462032;113;930584;-74
2022/01/18 02:35:11;;;;;;;8.16;7.46;;;;;;;2.68;74.05;98951.62;462218;112;930715;-73
2022/01/18 02:36:15;;;;;;;7.81;7.11;;;;;;;2.68;74.04;98946.23;462014;112;922633;-73
2022/01/18 02:37:18;;;;;;;8.02;7.32;;;;;;;2.70;73.96;98944.15;461969;112;922557;-76
2022/01/18 02:38:22;;;;;;;7.72;7.09;;;;;;;2.69;73.93;98942.52;462024;113;922647;-74
2022/01/18 02:39:28;;;;;;;8.86;8.08;;;;;;;2.71;73.96;98950.36;461944;112;923553;-73
2022/01/18 02:40:34;;;;;;;7.02;6.52;;;;;;;2.72;73.82;98941.27;461831;113;922873;-75
2022/01/18 02:41:37;;;;;;;8.01;7.41;;;;;;;2.71;73.72;98950.36;461934;112;923046;-73
2022/01/18 02:42:44;;;;;;;7.62;6.96;;;;;;;2.72;73.73;98952.03;462492;112;922759;-74
2022/01/18 02:43:50;;;;;;;7.86;7.26;;;;;;;2.72;73.78;98955.55;463034;113;922648;-75
2022/01/18 02:44:54;;;;;;;7.73;7.18;;;;;;;2.73;73.82;98957.22;462992;113;922486;-75
2022/01/18 02:45:58;;;;;;;7.69;7.09;;;;;;;2.74;73.72;98945.42;463090;113;922899;-74
2022/01/18 02:47:02;;;;;;;7.58;7.07;;;;;;;2.74;73.66;98940.04;462567;112;922568;-75
2022/01/18 02:48:05;;;;;;;7.01;6.41;;;;;;;2.76;73.73;98947.88;462454;113;923448;-74
2022/01/18 02:49:09;;;;;;;7.44;6.84;;;;;;;2.77;73.72;98945.00;463806;112;922625;-74
2022/01/18 02:50:13;;;;;;;7.74;7.14;;;;;;;2.79;73.68;98948.33;458702;112;922943;-75
2022/01/18 02:51:17;;;;;;;7.87;7.29;;;;;;;2.82;73.68;98947.91;462238;113;930547;-72
2022/01/18 02:52:20;;;;;;;7.08;6.50;;;;;;;2.84;73.52;98945.84;458074;113;922576;-74
2022/01/18 02:53:23;;;;;;;7.47;6.84;;;;;;;2.83;73.27;98952.26;460896;111;922608;-74
2022/01/18 02:54:27;;;;;;;6.88;6.33;;;;;;;2.81;73.22;98951.63;459876;112;922830;-75
2022/01/18 02:55:30;;;;;;;7.57;6.81;;;;;;;2.80;73.17;98944.61;459223;113;922536;-74
2022/01/18 02:56:40;;;;;;;7.22;6.62;;;;;;;2.80;73.13;98941.91;452277;115;922621;-73
2022/01/18 02:57:54;;;;;;;6.92;6.24;;;;;;;2.79;73.05;98950.19;450445;115;930570;-74
2022/01/18 02:58:47;;;;;;;7.47;6.84;;;;;;;2.78;73.07;98943.97;448390;116;922735;-76
2022/01/18 03:00:05;;;;;;;7.03;6.53;;;;;;;2.78;73.02;98946.66;452374;115;922868;-74
2022/01/18 03:03:44;;;;;;;7.41;6.81;;;;;;;2.69;72.82;98942.52;451705;115;922708;-73
2022/01/18 03:04:49;;;;;;;7.17;6.51;;;;;;;2.65;72.87;98945.80;452585;115;922540;-73
2022/01/18 03:05:53;;;;;;;7.11;6.60;;;;;;;2.64;72.90;98950.38;454751;114;922781;-74
2022/01/18 03:06:56;;;;;;;6.96;6.37;;;;;;;2.61;72.89;98945.39;452951;116;922705;-72
2022/01/18 03:07:59;;;;;;;7.14;6.54;;;;;;;2.60;72.91;98942.89;453868;115;923115;-75
2022/01/18 03:09:02;;;;;;;6.26;5.78;;;;;;;2.58;72.93;98943.11;455561;115;922833;-75
2022/01/18 03:10:07;;;;;;;7.27;6.67;;;;;;;2.59;73.06;98941.26;453890;114;923188;-75
2022/01/18 03:11:10;;;;;;;7.62;7.02;;;;;;;2.62;73.18;98951.59;455026;114;922729;-75
2022/01/18 03:12:15;;;;;;;7.18;6.68;;;;;;;2.64;73.18;98944.16;456568;115;922539;-73
2022/01/18 03:13:19;;;;;;;6.17;5.71;;;;;;;2.66;73.07;98948.29;455164;114;922891;-75
2022/01/18 03:14:22;;;;;;;6.98;6.48;;;;;;;2.67;72.99;98941.88;455191;114;930729;-74
2022/01/18 03:15:25;;;;;;;6.95;6.36;;;;;;;2.67;72.99;98943.73;450327;115;922716;-73
2022/01/18 03:16:29;;;;;;;6.94;6.44;;;;;;;2.68;73.01;98940.02;450006;114;922640;-74
2022/01/18 03:17:33;;;;;;;7.02;6.52;;;;;;;2.68;72.95;98940.85;450371;114;922803;-75
2022/01/18 03:18:36;;;;;;;6.53;6.10;;;;;;;2.69;72.86;98939.00;443634;116;930871;-76
2022/01/18 03:19:39;;;;;;;7.49;6.86;;;;;;;2.69;72.91;98939.00;451058;114;922795;-75
2022/01/18 03:20:43;;;;;;;6.97;6.46;;;;;;;2.70;72.93;98943.34;461331;112;922869;-74
2022/01/18 03:21:46;;;;;;;6.93;6.31;;;;;;;2.70;72.95;98948.73;459613;112;923218;-74
2022/01/18 03:22:50;;;;;;;7.04;6.48;;;;;;;2.71;72.96;98951.20;458963;113;922684;-74
2022/01/18 03:24:10;;;;;;;7.65;7.05;;;;;;;2.74;72.95;98944.59;452064;115;922870;-74
2022/01/18 03:25:14;;;;;;;6.30;5.89;;;;;;;2.74;72.89;98934.66;449122;116;923675;-74
2022/01/18 03:26:15;;;;;;;7.21;6.68;;;;;;;2.76;72.88;98937.95;448393;115;922757;-74
2022/01/18 03:28:35;;;;;;;6.27;5.75;;;;;;;2.78;72.79;98946.66;454670;115;922739;-74
2022/01/18 03:29:39;;;;;;;6.11;5.67;;;;;;;2.77;72.66;98949.55;454407;115;922483;-74
2022/01/18 03:30:45;;;;;;;6.34;5.84;;;;;;;2.75;72.62;98947.09;454488;114;922906;-74
2022/01/18 03:31:48;;;;;;;6.26;5.85;;;;;;;2.73;72.60;98951.83;452997;114;922645;-74
2022/01/18 03:32:51;;;;;;;6.41;5.91;;;;;;;2.73;72.64;98949.14;454068;115;923295;-74
2022/01/18 03:33:54;;;;;;;6.26;5.78;;;;;;;2.73;72.64;98954.52;455035;114;922569;-73
2022/01/18 03:34:58;;;;;;;6.49;5.99;;;;;;;2.72;72.64;98947.48;453274;115;923733;-76
2022/01/18 03:36:01;;;;;;;8.38;6.78;;;;;;;2.73;72.67;98953.69;454854;115;923183;-74
2022/01/18 03:37:04;;;;;;;6.30;5.86;;;;;;;2.73;72.62;98949.14;455671;115;922716;-74
2022/01/18 03:38:09;;;;;;;6.31;5.81;;;;;;;2.73;72.62;98951.83;455461;114;930565;-75
2022/01/18 03:39:13;;;;;;;6.62;6.12;;;;;;;2.73;72.52;98943.76;454903;114;922631;-74
2022/01/18 03:40:17;;;;;;;6.30;5.90;;;;;;;2.73;72.50;98959.91;453244;114;923225;-74
2022/01/18 03:41:20;;;;;;;6.36;5.90;;;;;;;2.73;72.46;98959.91;451552;115;922648;-75
2022/01/18 03:42:40;;;;;;;6.14;5.65;;;;;;;2.72;72.45;98960.93;448584;116;923084;-74
2022/01/18 03:43:41;;;;;;;6.03;5.57;;;;;;;2.73;72.56;98959.07;450303;115;922688;-73
2022/01/18 03:44:47;;;;;;;6.14;5.71;;;;;;;2.73;72.55;98959.91;450901;115;923208;-75
2022/01/18 03:45:54;;;;;;;5.93;5.53;;;;;;;2.73;72.46;98954.52;449810;116;930686;-74
2022/01/18 03:46:58;;;;;;;6.72;6.20;;;;;;;2.73;72.48;98951.00;453390;115;922703;-74
2022/01/18 03:48:04;;;;;;;6.44;5.94;;;;;;;2.73;72.43;98948.31;447456;116;922608;-71
2022/01/18 03:49:06;;;;;;;5.98;5.48;;;;;;;2.71;72.37;98961.12;452653;115;930660;-73
2022/01/18 03:50:11;;;;;;;6.04;5.61;;;;;;;2.69;72.35;98957.83;452040;115;922768;-75
2022/01/18 03:51:14;;;;;;;6.08;5.65;;;;;;;2.68;72.44;98957.00;452774;114;930758;-74
2022/01/18 03:52:18;;;;;;;6.69;6.13;;;;;;;2.68;72.49;98964.24;444945;117;930691;-74
2022/01/18 03:53:22;;;;;;;6.51;6.08;;;;;;;2.66;72.57;98960.91;448403;117;923048;-76
2022/01/18 03:54:25;;;;;;;5.85;5.42;;;;;;;2.67;72.61;98951.81;449387;115;922811;-74
2022/01/18 03:55:28;;;;;;;6.33;5.84;;;;;;;2.65;72.62;98954.70;447714;117;923016;-74
2022/01/18 03:56:32;;;;;;;6.68;6.18;;;;;;;2.63;72.75;98954.09;452703;115;923231;-74
2022/01/18 03:57:35;;;;;;;6.61;6.11;;;;;;;2.61;73.08;98953.45;453346;116;922624;-74
2022/01/18 03:58:38;;;;;;;6.60;6.01;;;;;;;2.62;73.43;98963.19;454456;116;922782;-75
2022/01/18 03:59:41;;;;;;;6.37;5.87;;;;;;;2.64;73.56;98969.21;453174;116;922524;-74
2022/01/18 04:00:45;;;;;;;6.61;6.11;;;;;;;2.65;73.61;98960.08;452738;116;922554;-75
2022/01/18 04:01:48;;;;;;;6.19;5.73;;;;;;;2.66;73.77;98964.44;454349;116;923257;-73
2022/01/18 04:02:53;;;;;;;7.02;6.49;;;;;;;2.67;73.88;98960.72;454549;114;922526;-74
2022/01/18 04:03:57;;;;;;;6.70;6.22;;;;;;;2.68;74.31;98959.69;451208;114;930548;-74
2022/01/18 04:05:01;;;;;;;6.44;5.97;;;;;;;2.68;74.57;98964.24;450148;115;922704;-74
2022/01/18 04:06:04;;;;;;;6.63;6.13;;;;;;;2.67;74.81;98951.81;450873;116;922912;-72
2022/01/18 04:07:08;;;;;;;6.60;6.10;;;;;;;2.66;75.15;98953.67;451357;116;923142;-74
2022/01/18 04:08:11;;;;;;;6.58;6.06;;;;;;;2.66;75.53;98958.22;450483;115;923063;-75
2022/01/18 04:09:16;;;;;;;6.81;6.31;;;;;;;2.67;75.73;98952.64;451438;115;930705;-75
2022/01/18 04:10:20;;;;;;;5.93;5.47;;;;;;;2.68;75.99;98956.17;450380;116;930541;-74
2022/01/18 04:11:24;;;;;;;6.26;5.76;;;;;;;2.69;76.13;98964.05;451241;116;922631;-74
2022/01/18 04:12:27;;;;;;;6.42;5.94;;;;;;;2.70;76.01;98956.80;451145;115;930671;-75
2022/01/18 04:13:30;;;;;;;6.26;5.76;;;;;;;2.69;76.05;98961.36;452319;116;931009;-74
2022/01/18 04:14:34;;;;;;;5.71;5.31;;;;;;;2.68;76.20;98959.69;452458;116;923188;-75
2022/01/18 04:15:37;;;;;;;6.14;5.58;;;;;;;2.68;76.34;98953.48;452016;115;922792;-74
2022/01/18 04:16:55;;;;;;;5.87;5.46;;;;;;;2.68;76.38;98957.00;451928;115;922541;-75
2022/01/18 04:18:03;;;;;;;6.05;5.61;;;;;;;2.68;76.36;98961.55;450486;116;922564;-74
2022/01/18 04:18:58;;;;;;;6.96;6.46;;;;;;;2.66;76.43;98959.05;450434;116;923268;-74
2022/01/18 04:28:02;;;;;;;6.56;6.03;;;;;;;2.63;76.82;98954.09;449813;116;922664;-74
2022/01/18 04:28:59;;;;;;;6.44;5.94;;;;;;;2.63;76.85;98964.02;449555;115;922579;-75
2022/01/18 04:30:07;;;;;;;6.43;5.94;;;;;;;2.63;76.87;98962.16;449733;116;922459;-75
2022/01/18 04:31:11;;;;;;;6.64;6.14;;;;;;;2.64;76.88;98966.52;451093;116;930758;-74
2022/01/18 04:32:14;;;;;;;6.51;6.05;;;;;;;2.66;76.82;98961.75;451580;115;923337;-73
2022/01/18 04:33:17;;;;;;;6.08;5.67;;;;;;;2.68;76.81;98961.55;452988;115;923751;-74
2022/01/18 04:34:20;;;;;;;6.22;5.83;;;;;;;2.68;76.80;98965.07;450885;116;922542;-75
2022/01/18 04:35:23;;;;;;;6.75;6.25;;;;;;;2.70;76.83;98960.30;451432;116;922644;-75
2022/01/18 04:36:28;;;;;;;6.01;5.51;;;;;;;2.72;76.88;98963.63;451796;115;922610;-74
2022/01/18 04:37:31;;;;;;;5.85;5.43;;;;;;;2.74;76.87;98961.56;451945;115;922997;-74
2022/01/18 04:38:36;;;;;;;6.52;6.02;;;;;;;2.76;76.80;98969.41;451766;114;922878;-77
2022/01/18 04:39:41;;;;;;;6.76;6.22;;;;;;;2.77;76.76;98966.53;452090;116;922700;-75
2022/01/18 04:40:46;;;;;;;5.92;5.44;;;;;;;2.80;76.67;98966.14;452497;115;930504;-75
2022/01/18 04:41:49;;;;;;;5.91;5.47;;;;;;;2.81;76.53;98962.39;451784;115;922992;-74
2022/01/18 04:49:12;;;;;;;5.79;5.39;;;;;;;2.87;76.11;98972.34;453042;115;922650;-75
2022/01/18 04:50:15;;;;;;;6.06;5.60;;;;;;;2.85;76.02;98971.73;453573;116;922597;-73
2022/01/18 04:51:19;;;;;;;6.63;6.10;;;;;;;2.83;75.88;98963.02;450908;116;922747;-76
2022/01/18 04:52:22;;;;;;;5.92;5.52;;;;;;;2.78;75.91;98954.73;451033;115;922623;-73
2022/01/18 04:53:27;;;;;;;6.06;5.62;;;;;;;2.78;75.91;98954.73;451736;115;923631;-73
2022/01/18 04:54:30;;;;;;;5.95;5.50;;;;;;;2.79;75.96;98956.40;450405;114;922670;-74
2022/01/18 04:55:35;;;;;;;6.19;5.60;;;;;;;2.80;75.93;98962.62;460789;112;922973;-74
2022/01/18 04:57:53;;;;;;;7.02;6.42;;;;;;;2.82;75.80;98963.22;460412;113;930485;-75
2022/01/18 04:58:57;;;;;;;6.66;6.17;;;;;;;2.83;75.74;98963.02;459023;112;922858;-74
2022/01/18 05:00:00;;;;;;;7.15;6.59;;;;;;;2.82;75.69;98955.98;461363;112;922720;-74
2022/01/18 05:01:05;;;;;;;6.62;6.12;;;;;;;2.84;75.68;98962.00;461339;113;922622;-74
2022/01/18 05:02:09;;;;;;;7.47;6.87;;;;;;;2.83;75.61;98954.95;461468;113;922727;-74
2022/01/18 05:03:13;;;;;;;6.56;6.10;;;;;;;2.83;75.59;98962.19;461355;113;923155;-74
2022/01/18 05:04:16;;;;;;;7.40;6.84;;;;;;;2.85;75.53;98962.83;461473;112;922487;-74
2022/01/18 05:05:26;;;;;;;6.69;6.18;;;;;;;2.85;75.45;98963.66;461905;112;922623;-74
2022/01/18 05:06:28;;;;;;;7.14;6.56;;;;;;;2.86;75.23;98973.39;462341;112;923003;-75
2022/01/18 05:07:32;;;;;;;7.26;6.64;;;;;;;2.88;75.14;98973.17;462996;113;922732;-74
2022/01/18 05:08:37;;;;;;;6.17;5.67;;;;;;;2.89;75.11;98975.67;461054;112;923076;-76
2022/01/18 05:09:42;;;;;;;7.38;6.79;;;;;;;2.90;74.98;98966.56;454899;114;922568;-75
2022/01/18 05:10:51;;;;;;;7.06;6.46;;;;;;;2.94;74.87;98972.35;455136;115;922737;-74
2022/01/18 05:11:57;;;;;;;6.68;6.18;;;;;;;2.94;74.74;98973.19;456688;115;922684;-75
2022/01/18 05:12:57;;;;;;;6.85;6.33;;;;;;;2.96;74.65;98974.84;453626;114;922637;-74
2022/01/18 05:15:22;;;;;;;7.49;6.89;;;;;;;2.96;74.50;98989.14;451252;115;922709;-73
2022/01/18 05:17:43;;;;;;;6.76;6.26;;;;;;;2.98;74.42;98983.56;461798;112;922598;-76
2022/01/18 05:21:24;;;;;;;7.19;6.62;;;;;;;2.99;74.25;98982.50;447997;116;923862;-74
2022/01/18 05:23:44;;;;;;;7.46;6.89;;;;;;;2.99;74.34;98983.34;460382;113;922637;-74
2022/01/18 05:24:47;;;;;;;7.91;7.31;;;;;;;2.99;74.18;98983.34;460641;112;922752;-74
2022/01/18 05:25:52;;;;;;;7.95;7.35;;;;;;;2.99;74.17;98990.58;460468;113;922968;-76
2022/01/18 05:26:56;;;;;;;7.92;7.22;;;;;;;2.98;74.20;98988.95;460802;113;923275;-73
2022/01/18 05:28:02;;;;;;;7.20;6.67;;;;;;;2.99;74.22;98985.19;460945;113;923199;-74
2022/01/18 05:29:05;;;;;;;7.56;6.97;;;;;;;3.00;74.19;98986.86;461874;111;922934;-75
2022/01/18 05:30:10;;;;;;;7.79;7.09;;;;;;;3.01;74.20;98985.83;462764;112;923432;-74
2022/01/18 05:31:13;;;;;;;7.57;6.97;;;;;;;3.03;74.22;98991.84;461978;113;923545;-74
2022/01/18 05:32:17;;;;;;;7.98;7.36;;;;;;;3.04;74.16;98988.93;461966;113;923547;-75
2022/01/18 05:33:22;;;;;;;8.94;8.14;;;;;;;3.06;74.22;98999.50;463263;113;922575;-74
2022/01/18 05:34:25;;;;;;;8.66;7.86;;;;;;;;;;454969;114;922581;-74
2022/01/18 05:35:28;;;;;;;8.74;7.93;;;;;;;3.09;73.96;98999.91;462607;113;922652;-75
2022/01/18 05:36:31;;;;;;;10.31;9.36;;;;;;;3.07;73.82;98996.61;462697;111;922621;-76
2022/01/18 05:37:35;;;;;;;9.46;8.56;;;;;;;3.06;73.76;99002.20;463771;113;923031;-75
2022/01/18 05:38:39;;;;;;;9.38;8.54;;;;;;;3.06;73.71;99002.20;463461;113;923104;-76
2022/01/18 05:39:42;;;;;;;9.69;8.81;;;;;;;3.04;73.68;98998.87;460478;113;922671;-74
2022/01/18 05:40:45;;;;;;;10.58;9.69;;;;;;;3.02;73.63;99009.03;460072;112;922535;-73
2022/01/18 05:41:49;;;;;;;10.54;9.51;;;;;;;3.00;73.60;99000.32;460875;113;923386;-73
2022/01/18 05:42:53;;;;;;;10.81;9.75;;;;;;;2.99;73.60;99002.18;460771;112;922242;-74
2022/01/18 05:43:56;;;;;;;9.95;9.11;;;;;;;2.99;73.61;99004.88;462315;113;930772;-75
2022/01/18 05:45:00;;;;;;;9.68;8.83;;;;;;;2.99;73.62;99007.56;463444;112;922472;-73
2022/01/18 05:46:03;;;;;;;9.36;8.57;;;;;;;3.00;73.58;99009.23;462053;113;930462;-75
2022/01/18 05:47:06;;;;;;;8.60;7.93;;;;;;;2.99;73.58;99007.56;462087;113;922328;-75
2022/01/18 05:48:10;;;;;;;8.73;8.04;;;;;;;3.01;73.58;99004.67;460413;112;922638;-73
2022/01/18 05:49:13;;;;;;;9.46;8.71;;;;;;;3.01;73.51;99018.97;460631;113;922684;-73
2022/01/18 05:50:17;;;;;;;9.18;8.33;;;;;;;3.02;73.48;99015.25;461214;113;922719;-73
2022/01/18 05:51:20;;;;;;;9.88;9.08;;;;;;;3.02;73.37;99012.55;460021;113;930577;-75
2022/01/18 05:52:23;;;;;;;8.34;7.64;;;;;;;3.00;73.28;99020.00;458678;112;922639;-73
2022/01/18 05:53:27;;;;;;;7.29;6.69;;;;;;;3.00;73.37;99030.77;458928;113;922668;-74
2022/01/18 05:54:31;;;;;;;6.35;5.89;;;;;;;3.00;73.36;99022.69;453704;115;922499;-74
2022/01/18 05:55:34;;;;;;;7.46;6.94;;;;;;;3.02;73.34;99027.88;447524;116;922600;-76
2022/01/18 05:56:38;;;;;;;7.81;6.81;;;;;;;3.00;73.22;99020.00;462152;112;922792;-73
2022/01/18 05:57:41;;;;;;;8.20;7.60;;;;;;;2.98;73.17;99024.75;461917;113;923173;-76
2022/01/18 05:58:45;;;;;;;8.02;7.43;;;;;;;2.94;73.16;99028.89;462301;113;922577;-74
2022/01/18 05:59:50;;;;;;;8.24;7.62;;;;;;;2.94;73.16;99028.89;462764;113;930651;-73
2022/01/18 06:00:54;;;;;;;8.48;7.82;;;;;;;2.93;73.27;99028.05;463117;112;923078;-74
2022/01/18 06:02:02;;;;;;;10.81;10.02;;;;;;;2.94;73.29;99035.11;462783;113;922952;-74